Antonin Masopust

Scout - Banik Ostrava
20 Nov 2027
Saturday
Process

Personality

Adaptability (19) Ambition (8) Controversy (15) Loyalty (10) Pressure (9) Professionalism (19) Sportsmanship (16) Temperament (16)

Profile

Coaching Style Democratic
License Continental A
Determination 10
Man Management 11
Motivating 11
Discipline 8
Job Satisfaction
100%
Fatigue
0%
Role Scout
Wage 78.6K p/w
Contract 14.03.2030

Performance

Behaviour Good
Training Effectiveness
41%
Player Development
30%
Injury Prevention
55%
Tactical Implementation
30%

Recent Events

Attended a recruitment meeting 7d ago
Recommended a transfer target 7d ago
Attended a recruitment meeting 14d ago
Recommended a transfer target 14d ago
Attended a recruitment meeting 21d ago
Recommended a transfer target 21d ago
Attended a recruitment meeting 28d ago
Recommended a transfer target 28d ago

Currently Monitoring

146
Player Club Status Ability Confidence Watched Last Observed Latest Vote
Matěj Ryneš Sparta Prague Active 122 / 130 40% 6 30.05.2027 -
Rumarn Burrell Queens Park Rangers Active 122 / 114 40% 4 30.05.2027 -
Zeidane Inoussa Swansea City Active 124 / 122 40% 1 30.05.2027 -
Melker Widell Swansea City Active 119 / 114 40% 2 29.05.2027 -
Lamine Cissé Peterborough United Active 124 / 125 40% 3 29.05.2027 -
Andre Brooks Sheffield United Active 134 / 137 40% 3 29.05.2027 -
Isaac Price West Bromwich Albion Active 126 / 138 40% 1 28.05.2027 -
Gonçalo Oliveira Benfica Active 113 / 125 40% 4 25.05.2027 -
Moncef Zekri Sporting CP Active 96 / 110 40% 1 25.05.2027 -
Welington Southampton Active 127 / 121 40% 2 24.05.2027 -
Isaiah Jones Luton Town Active 121 / 131 40% 6 24.05.2027 -
Bakary Haïdara Hearts of Oak Active 99 / 102 40% 1 24.05.2027 -
Martim Cunha Porto Active 97 / 104 40% 2 21.05.2027 -
T-Jay Parfitt Cardiff City Active 91 / 105 40% 1 21.05.2027 -
Abraham Paintsil Hasaacas Active 93 / 99 40% 2 20.05.2027 -
Konta Ismaily Active 97 / 106 40% 1 20.05.2027 -
Olaniyi Saheed Kwara United Active 86 / 98 40% 1 20.05.2027 -
Alex Lowry Wycombe Wanderers Active 122 / 118 40% 3 19.05.2027 -
Jovon Makama Norwich City Active 128 / 118 40% 2 17.05.2027 -
Uche Jaguar Kwara United Active 98 / 105 40% 1 17.05.2027 -
Sam Curtis Swindon Town Active 100 / 113 40% 1 17.05.2027 -
Hosea Michael Remo Stars Active 94 / 96 40% 1 17.05.2027 -
Jofre Torrents Ajax Active 121 / 117 40% 1 14.05.2027 -
Leonardo Mendicino Bari Active 119 / 129 40% 1 14.05.2027 -
Riquelme Thompson-Jones Shrewsbury Town Active 109 / 106 40% 1 14.05.2027 -
Max Bird Birmingham Active 139 / 126 40% 1 13.05.2027 -
Leandro Martins Benfica Active 99 / 90 40% 3 12.05.2027 -
Simone Kosijer Triestina Active 101 / 99 40% 3 12.05.2027 -
Surprise Manthosi Polokwane City Active 87 / 85 40% 1 12.05.2027 -
Solomon John Mlada Boleslav Active 112 / 125 40% 2 11.05.2027 -
Jason Knight Bristol City Active 127 / 127 40% 2 11.05.2027 -
Lukáš Červ Viktoria Plzen Active 135 / 134 40% 6 10.05.2027 -
Bosun Lawal Stoke City Active 132 / 125 40% 2 10.05.2027 -
Adam Randell Bristol City Active 123 / 123 40% 2 09.05.2027 -
Giuseppe Di Serio Spezia Active 117 / 115 40% 1 09.05.2027 -
Relebohile Mofokeng Orlando Pirates Active 132 / 135 40% 7 08.05.2027 -
Jack McGlynn Stoke City Active 129 / 137 40% 2 08.05.2027 -
Tim Iroegbunam Hull City Active 137 / 142 40% 2 08.05.2027 -
Jayson Molumby West Bromwich Albion Active 130 / 126 40% 1 07.05.2027 -
Camiel Neghli Millwall Active 127 / 120 40% 1 07.05.2027 -
Othmane Maamma Watford Active 118 / 120 40% 2 04.05.2027 -
Mihailo Ivanović Millwall Active 116 / 116 40% 2 04.05.2027 -
Lewis Bate Stockport County Active 115 / 113 40% 1 04.05.2027 -
Rubin Colwill Cardiff City Active 121 / 113 40% 2 03.05.2027 -
Konan N'Dri Lecce Active 124 / 123 40% 2 02.05.2027 -
Cheick Oumar Souaré Viktoria Plzen Active 130 / 134 40% 2 01.05.2027 -
Cian Ashford Cardiff City Active 121 / 118 40% 4 01.05.2027 -
Caleb Yirenkyi Coventry City Active 129 / 146 40% 4 29.04.2027 -
Daniel Kelly Derby County Active 114 / 126 40% 1 29.04.2027 -
Bobby Clark Derby County Active 120 / 131 40% 2 28.04.2027 -
Richard Koné Queens Park Rangers Active 123 / 117 40% 1 28.04.2027 -
Koki Saito Queens Park Rangers Active 123 / 116 40% 3 26.04.2027 -
Louie Barry Sheffield Wednesday Active 124 / 127 40% 2 26.04.2027 -
Edwin Asamoah Berekum Chelsea Active 78 / 81 40% 1 26.04.2027 -
Petar Stanić Ludogorets Active 129 / 124 40% 5 24.04.2027 -
Jayden Nelson Bolton Wanderers Active 123 / 127 40% 2 24.04.2027 -
Ben Chrisene Sheffield Wednesday Active 123 / 122 40% 1 22.04.2027 -
Jonathan De Irastorza Levante Active 126 / 116 40% 2 20.04.2027 -
David Ozoh Derby County Active 127 / 124 40% 2 20.04.2027 -
Andy Irving Sparta Prague Active 135 / 121 40% 7 19.04.2027 -
Finn Azaz Southampton Active 125 / 132 40% 2 19.04.2027 -
Tyrese Campbell Sheffield United Active 131 / 128 40% 2 17.04.2027 -
Tadeáš Hájovský AS Trencin Active 109 / 112 40% 2 16.04.2027 -
Harry Clarke Preston Active 129 / 125 40% 3 15.04.2027 -
Joe Gelhardt Hull City Active 127 / 140 40% 2 15.04.2027 -
Samuel Edozie Southampton Active 129 / 135 40% 1 14.04.2027 -
Edoardo Bove Watford Active 137 / 129 40% 1 14.04.2027 -
Imrân Louza Watford Active 126 / 124 40% 1 14.04.2027 -
Ki-Jana Hoever Sparta Prague Active 130 / 138 40% 3 13.04.2027 -
Tiago Freitas Benfica Active 113 / 113 40% 3 10.04.2027 -
Mohammed Wakaso Hasaacas Active 101 / 111 40% 2 10.04.2027 -
Paris Maghoma Norwich City Active 127 / 129 40% 1 09.04.2027 -
Aidomo Emakhu Oxford United Active 116 / 122 40% 3 08.04.2027 -
Joel McGregor Swindon Town Active 93 / 92 40% 1 08.04.2027 -
Christos Mouzakitis Hull City Active 132 / 129 40% 2 05.04.2027 -
Andrey Ivlev Nizhniy Novgorod Active 116 / 111 40% 1 05.04.2027 -
Christian Krasnodar Active 139 / 126 40% 4 01.04.2027 -
Tshepang Moremi Orlando Pirates Active 118 / 109 40% 4 31.03.2027 -
Jeon Jin-Woo Sheffield Wednesday Active 128 / 121 40% 3 28.03.2027 -
Jethro Medine Walsall Active 96 / 103 40% 1 27.03.2027 -
Mattia Felici Cagliari Active 136 / 127 40% 1 26.03.2027 -
Million Manhoef Stoke City Active 134 / 134 40% 1 26.03.2027 -
Riley Owen Wycombe Wanderers Active 102 / 115 40% 1 25.03.2027 -
Mattia Puzone Siracusa Active 105 / 102 40% 1 25.03.2027 -
Abu Kamara Portsmouth Active 111 / 124 40% 1 24.03.2027 -
Edmund Inusah WAFA Active 75 / 79 40% 1 23.03.2027 -
Moussa Touré Sambenedettese Active 81 / 94 40% 1 20.03.2027 -
Matteo Pérez Vinlöf Dinamo Zagreb Active 114 / 131 40% 1 20.03.2027 -
John Mercado Sparta Prague Active 122 / 117 40% 3 19.03.2027 -
Zeki Amdouni Burnley Active 131 / 141 40% 1 19.03.2027 -
Armstrong Oko-Flex Levski Active 125 / 124 40% 3 17.03.2027 -
German Ignatov Rostov Active 98 / 93 40% 1 17.03.2027 -
Maeson King Blackpool Active 100 / 120 40% 2 16.03.2027 -
Victor Ehibe Gazelle Garoua Active 87 / 103 40% 2 16.03.2027 -
Cemran Dansin Orlando Pirates Active 105 / 121 40% 1 16.03.2027 -
Gladson Sulemana Liberty Professionals Active 90 / 108 40% 1 13.03.2027 -
Tommaso Cecotti Carpi Active 89 / 107 40% 1 11.03.2027 -
Ollie Tanner Cardiff City Active 116 / 116 40% 1 10.03.2027 -
Sascha Britschgi Catanzaro Active 118 / 124 40% 2 09.03.2027 -
Taras Mykhavko Dynamo Kyiv Active 123 / 126 40% 1 09.03.2027 -
Alex Robertson Cardiff City Active 120 / 125 40% 2 08.03.2027 -
Ali Ahmed Norwich City Active 122 / 125 40% 1 08.03.2027 -
Max Johnston Derby County Active 125 / 125 40% 2 03.03.2027 -
Helinho Toluca Active 134 / 116 40% 1 03.03.2027 -
Filip Kaloč Ludogorets Active 127 / 118 40% 4 02.03.2027 -
Mathias Jørgensen Blackburn Rovers Active 120 / 116 40% 1 02.03.2027 -
Fabijan Krivak Sigma Olomouc Active 117 / 122 65% 3 17.02.2027 Approve
Prince Adu Kwabena Viktoria Plzen Active 129 / 129 40% 3 17.02.2027 -
Kasey McAteer Ipswich Town Active 136 / 128 40% 1 17.02.2027 -
James Dornelly Peterborough United Active 104 / 99 40% 1 17.02.2027 -
Eivind Helland Bologna Active 133 / 130 40% 1 09.02.2027 -
Lucas Mbamba Westerlo Active 87 / 99 40% 1 09.02.2027 -
Fraser Murray Wigan Athletic Active 124 / 115 40% 1 08.02.2027 -
Karel Spáčil Viktoria Plzen Active 123 / 131 40% 3 06.02.2027 -
Tomáš Rigo Stoke City Active 125 / 138 40% 2 06.02.2027 -
Jan Haala Jihlava Active 82 / 79 40% 1 06.02.2027 -
Lukáš Vorlický Slovacko Active 107 / 119 40% 1 03.02.2027 -
Ayomide Abatan Jihlava Active 72 / 97 40% 1 01.02.2027 -
Michal Sadílek Slavia Prague Active 139 / 125 40% 3 20.12.2026 -
Ronald Swansea City Active 126 / 124 40% 1 20.12.2026 -
Aljoša Matko Ujpest Active 121 / 109 40% 2 13.12.2026 -
David Jurásek Slavia Prague Active 124 / 131 40% 2 03.12.2026 -
Camilo Durán Bloemfontein Celtic Active 107 / 122 40% 3 20.11.2026 -
Denis Višinský Viktoria Plzen Active 112 / 120 40% 1 19.11.2026 -
Ronaldo Vásquez Sumgayit Active 107 / 133 40% 1 19.11.2026 -
Magnus Kofod Andersen Sparta Prague Active 117 / 118 40% 1 18.11.2026 -
Ammar Ramadan DAC Dunajska Streda Active 123 / 115 40% 1 17.11.2026 -
Nazar Voloshyn Dynamo Kyiv Active 131 / 117 40% 3 14.11.2026 -
Talles Magno New York City Active 124 / 114 40% 1 09.11.2026 -
Merchas Doski Viktoria Plzen Active 130 / 116 40% 1 02.11.2026 -
Iván Angulo Orlando City Active 132 / 119 40% 1 30.10.2026 -
Reda Khadra Qarabag Active 126 / 128 40% 1 29.10.2026 -
Gabriel Pirani San Diego Football Club Active 140 / 150 40% 2 25.10.2026 -
Patrik Hellebrand Korona Active 122 / 122 40% 1 25.10.2026 -
David Da Costa Portland Timbers Active 115 / 144 40% 2 23.10.2026 -
Kelvin Yeboah Minnesota United FC Active 120 / 141 40% 1 22.10.2026 -
Hannes Wolf New York City Active 117 / 125 40% 1 17.10.2026 -
Hamzat Ojediran Colorado Rapids Active 106 / 139 40% 1 17.10.2026 -
Jesus Ferreira Seattle Sounders Active 122 / 112 40% 1 11.10.2026 -
Telasco Segovia Inter Miami CF Active 119 / 138 40% 1 11.10.2026 -
Djordje Mihailović Toronto FC Active 136 / 122 40% 1 06.10.2026 -
Tomás Chancalay Minnesota United FC Active 136 / 121 40% 1 06.10.2026 -
Maurice Malone Minnesota United FC Active 118 / 105 40% 1 06.10.2026 -
Marco Pašalić Orlando City Active 117 / 128 40% 1 05.10.2026 -
Shapi Suleymanov Sporting Kansas City Active 114 / 108 40% 1 05.10.2026 -
Roger Faye Pribram Active 89 / 90 40% 1 02.08.2026 -